Flight Track Log - Related Links

Times and Time Zones

All times are in EDT time to prevent confusion due to time zone crossing. See the GJS3710 flight status page for this flight to view local times or setup timezone preferences in your user account.

Time Position Orientation Groundspeed Altitude Reporting Facility
EDT Latitude Longitude Course Direction KTS MPH feet Rate Location/Type
Thu 04:36:24 PM 30.0072 -90.2456 60° Northeast 152 175 400  Level Houston Center
Thu 04:37:41 PM 30.0369 -90.1925 57° Northeast 174 200 2,900 2,120 Climbing Houston Center
Thu 04:38:37 PM 30.0558 -90.1258 72° East 242 278 5,100 2,226 Climbing Houston Center
Thu 04:39:45 PM 30.0969 -90.0550 56° Northeast 243 280 7,500 1,952 Climbing Houston Center
Thu 04:40:00 PM 29.9869 -89.7526 74° East  Level FlightAware Approximate
Thu 04:41:00 PM 30.0302 -89.6396 60° Northeast  Level FlightAware Approximate
Thu 04:41:00 PM 30.2364 -90.0332 North  Level Estimated
Thu 04:44:55 PM 30.3775 -89.6372 North 351 404 17,400  Level Houston Center
Thu 04:45:57 PM 30.4661 -89.5806 North 379 436 18,400 1,306 Climbing Houston Center
Thu 04:46:00 PM 30.4981 -89.6216 North  Level Estimated
Thu 04:46:59 PM 30.5944 -89.5667 North 390 449 20,100  Level Houston Center
Thu 04:48:00 PM 31.0174 -89.9099 North  Level Estimated
Thu 04:48:02 PM 30.7072 -89.5656 360° North 403 464 21,000  Level Houston Center
Thu 04:49:00 PM 31.1289 -89.8921 North  Level Estimated
Thu 04:49:04 PM 30.8247 -89.5642 North 420 483 22,100  Level Houston Center
Thu 04:50:00 PM 31.2405 -89.8743 North  Level Estimated
Thu 04:50:06 PM 30.9464 -89.5644 360° North 434 499 23,200  Level Houston Center
Thu 04:51:08 PM 31.0703 -89.5622 North 443 510 23,900 387 Climbing Houston Center
Thu 04:52:10 PM 31.2247 -89.5592 North 460 529 24,000 48 Climbing Houston Center
Thu 04:53:00 PM 31.2774 -89.5198 North  Level Estimated
Thu 04:53:12 PM 31.3567 -89.5567 North 472 543 24,000  Level Houston Center
Thu 04:54:00 PM 31.3887 -89.5051 North  Level Estimated
Thu 04:54:14 PM 31.4900 -89.5561 360° North 476 548 24,500  Level Houston Center
Thu 04:55:16 PM 31.6219 -89.5744 353° North 478 550 25,500 968 Climbing Houston Center
Thu 04:56:18 PM 31.7542 -89.5889 355° North 478 550 26,500 726 Climbing Houston Center
Thu 04:57:20 PM 31.8858 -89.6047 354° North 478 550 27,000 629 Climbing Houston Center
Thu 04:58:22 PM 32.0483 -89.6225 355° North 486 559 27,800 871 Climbing Houston Center
Thu 04:59:24 PM 32.1817 -89.6397 354° North 484 557 28,800 1,246 Climbing Houston Center
Thu 05:00:32 PM 32.3214 -89.6567 354° North 483 556 30,500 1,266 Climbing Memphis Center
Thu 05:01:32 PM 32.4486 -89.6706 355° North 471 542 31,500 1,000 Climbing Memphis Center
Thu 05:02:32 PM 32.5761 -89.6867 354° North 461 531 32,500 950 Climbing Memphis Center
Thu 05:03:32 PM 32.6994 -89.7006 355° North 456 525 33,400 950 Climbing Memphis Center
Thu 05:04:32 PM 32.8247 -89.7144 355° North 451 519 34,400 800 Climbing Memphis Center
Thu 05:05:32 PM 32.9647 -89.7283 355° North 451 519 35,000 700 Climbing Memphis Center
Thu 05:06:32 PM 33.0942 -89.7447 354° North 456 525 35,800 950 Climbing Memphis Center
Thu 05:07:32 PM 33.2153 -89.7614 353° North 456 525 36,900 700 Climbing Memphis Center
Thu 05:08:32 PM 33.3344 -89.7778 353° North 438 504 37,200 400 Climbing Memphis Center
Thu 05:09:32 PM 33.4533 -89.7919 354° North 432 497 37,700 400 Climbing Memphis Center
Thu 05:10:32 PM 33.5725 -89.8086 353° North 427 491 38,000 150 Climbing Memphis Center
Thu 05:11:32 PM 33.6811 -89.8206 355° North 427 491 38,000  Level Memphis Center
Thu 05:12:32 PM 33.8000 -89.8347 354° North 427 491 38,000  Level Memphis Center
Thu 05:13:32 PM 33.9294 -89.8489 355° North 421 484 38,000  Level Memphis Center
Thu 05:14:32 PM 34.0528 -89.8658 354° North 432 497 38,000  Level Memphis Center
Thu 05:15:32 PM 34.1758 -89.8803 354° North 437 503 38,000  Level Memphis Center
Thu 05:16:32 PM 34.2992 -89.8944 355° North 450 518 38,000  Level Memphis Center
Thu 05:17:32 PM 34.4222 -89.9114 354° North 450 518 38,000  Level Memphis Center
Thu 05:18:32 PM 34.5497 -89.9283 354° North 444 511 38,000  Level Memphis Center
Thu 05:19:32 PM 34.6750 -89.9456 354° North 449 517 38,000  Level Memphis Center
Thu 05:20:32 PM 34.7856 -89.9653 352° North 449 517 38,000  Level Memphis Center
Thu 05:21:32 PM 34.9192 -89.9772 356° North 465 535 38,000  Level Memphis Center
Thu 05:22:32 PM 35.0589 -89.9817 359° North 465 535 38,000  Level Memphis Center
Thu 05:23:32 PM 35.1839 -89.9456 13° North 459 528 38,000  Level Memphis Center
Thu 05:24:32 PM 35.3089 -89.9117 12° North 464 534 38,000  Level Memphis Center
Thu 05:25:32 PM 35.4342 -89.8781 12° North 464 534 38,000  Level Memphis Center
Thu 05:26:32 PM 35.5653 -89.8644 North 464 534 38,000  Level Memphis Center
Thu 05:27:32 PM 35.6886 -89.9019 346° North 452 520 38,000  Level Memphis Center
Thu 05:28:32 PM 35.8014 -89.9500 341° North 441 507 38,000  Level Memphis Center
Thu 05:29:32 PM 35.9267 -89.9956 344° North 452 520 38,000  Level Memphis Center
Thu 05:30:32 PM 36.0497 -90.0361 345° North 458 527 38,000  Level Memphis Center
Thu 05:31:32 PM 36.1750 -90.0819 344° North 458 527 38,000  Level Memphis Center
Thu 05:32:32 PM 36.2981 -90.1253 344° North 458 527 38,000  Level Memphis Center
Thu 05:33:32 PM 36.4253 -90.1686 345° North 463 533 38,000  Level Memphis Center
Thu 05:34:32 PM 36.5506 -90.2097 345° North 463 533 38,000  Level Memphis Center
Thu 05:35:32 PM 36.6733 -90.2533 344° North 463 533 38,000  Level Memphis Center
Thu 05:36:32 PM 36.8028 -90.2972 345° North 463 533 38,000  Level Memphis Center
Thu 05:38:54 PM 37.0836 -90.3917 345° North 468 539 38,000  Level Kansas City Center
Thu 05:39:56 PM 37.2100 -90.4353 345° North 469 540 38,000  Level Kansas City Center
Thu 05:40:58 PM 37.3358 -90.4797 344° North 469 540 38,000  Level Kansas City Center
Thu 05:42:00 PM 37.4847 -90.5331 344° North 469 540 38,000  Level Kansas City Center
Thu 05:43:02 PM 37.6108 -90.5786 344° North 470 541 38,000  Level Kansas City Center
Thu 05:44:04 PM 37.7356 -90.6217 345° North 468 539 38,000  Level Kansas City Center
Thu 05:45:06 PM 37.8625 -90.6681 344° North 473 544 38,000  Level Kansas City Center
Thu 05:46:08 PM 37.9892 -90.7136 344° North 473 544 38,000  Level Kansas City Center
Thu 05:47:10 PM 38.1167 -90.7594 344° North 474 545 38,000  Level Kansas City Center
Thu 05:48:12 PM 38.2697 -90.8150 344° North 475 547 38,000  Level Kansas City Center
Thu 05:49:14 PM 38.3989 -90.8633 344° North 478 550 38,000  Level Kansas City Center
Thu 05:50:16 PM 38.5281 -90.9100 344° North 479 551 38,000  Level Kansas City Center
Thu 05:51:18 PM 38.6606 -90.9475 348° North 484 557 38,000 -339 Level Kansas City Center
Thu 05:52:20 PM 38.8003 -90.9264 North 494 568 37,300 -484 Descending Kansas City Center
Thu 05:53:22 PM 38.9281 -90.8553 23° Northeast 503 579 37,000 -435 Descending Kansas City Center
Thu 05:54:24 PM 39.0569 -90.7808 24° Northeast 504 580 36,400 -774 Descending Kansas City Center
Thu 05:55:26 PM 39.1878 -90.7069 24° Northeast 507 583 35,400 -1,056 Descending Kansas City Center
Thu 05:56:29 PM 39.3453 -90.6200 23° Northeast 510 587 34,200 -1,056 Descending Kansas City Center
Thu 05:57:31 PM 39.4772 -90.5467 23° Northeast 513 590 33,200 -581 Descending Kansas City Center
Thu 05:58:33 PM 39.6108 -90.4725 23° Northeast 519 597 33,000 -97 Descending Kansas City Center
Thu 05:59:35 PM 39.7444 -90.3969 23° Northeast 521 600 33,000  Level Kansas City Center
Thu 06:00:37 PM 39.8931 -90.3142 23° Northeast 520 598 33,000  Level Kansas City Center
Thu 06:01:25 PM 39.9975 -90.2544 24° Northeast 518 596 33,000  Level Chicago Center
Thu 06:02:27 PM 40.1311 -90.1792 23° Northeast 522 601 33,000  Level Chicago Center
Thu 06:03:29 PM 40.2633 -90.1053 23° Northeast 517 595 33,000 -435 Level Chicago Center
Thu 06:04:31 PM 40.3953 -90.0297 24° Northeast 516 594 32,100 -1,306 Descending Chicago Center
Thu 06:05:33 PM 40.5408 -89.9461 24° Northeast 500 575 30,300 -1,645 Descending Chicago Center
Thu 06:06:35 PM 40.6603 -89.8775 24° Northeast 477 549 28,700 -1,597 Descending Chicago Center
Thu 06:07:37 PM 40.7786 -89.8086 24° Northeast 468 539 27,000 -1,584 Descending Chicago Center
Thu 06:08:40 PM 40.8978 -89.7414 23° Northeast 466 536 25,400 -1,452 Descending Chicago Center
Thu 06:09:41 PM 41.0072 -89.6786 23° Northeast 451 519 24,000 -683 Descending Chicago Center
Thu 06:10:43 PM 41.1389 -89.6014 24° Northeast 437 503 24,000  Level Chicago Center
Thu 06:11:45 PM 41.2078 -89.4744 54° Northeast 436 502 24,000 -576 Level Chicago Center
Thu 06:12:48 PM 41.2614 -89.3386 62° Northeast 423 487 22,800 -1,776 Descending Chicago Center
Thu 06:13:50 PM 41.3131 -89.2106 62° Northeast 404 465 20,300 -2,323 Descending Chicago Center
Thu 06:14:52 PM 41.3597 -89.0875 63° Northeast 380 437 18,000 -2,177 Descending Chicago Center
Thu 06:15:54 PM 41.4069 -88.9717 61° Northeast 364 419 15,800 -2,613 Descending Chicago Center
Thu 06:16:56 PM 41.4631 -88.8328 62° Northeast 357 411 12,600 -2,323 Descending Chicago Center
Thu 06:17:58 PM 41.5089 -88.7172 62° Northeast 355 409 11,000 -726 Descending Chicago Center
Thu 06:19:00 PM 41.5525 -88.6086 62° Northeast 340 391 11,100 48 Climbing Chicago Center
Thu 06:20:02 PM 41.5967 -88.4975 62° Northeast 339 390 11,100 -288 Level Chicago Center
Thu 06:21:05 PM 41.6536 -88.4064 50° Northeast 316 364 10,500 -960 Descending Chicago Center
Thu 06:22:07 PM 41.7256 -88.3450 32° Northeast 306 352 9,100 -726 Descending Chicago Center
Thu 06:23:09 PM 41.8114 -88.3358 North 255 293 9,000 -532 Descending Chicago Center
Thu 06:24:11 PM 41.8703 -88.3550 346° North 234 269 8,000 -581 Descending Chicago Center
Thu 06:25:13 PM 41.8831 -88.4317 283° West 214 246 7,800 -1,006 Descending Chicago Center
Thu 06:27:10 PM 41.9667 -88.4333 359° North 197 227 5,000 -949 Descending Chicago TRACON
Thu 06:28:10 PM 41.9667 -88.3500 90° East 199 229 5,000  Level Chicago TRACON
Thu 06:29:21 PM 41.9664 -88.2711 90° East 202 232 5,000 -90 Level Chicago Center
Thu 06:30:23 PM 41.9675 -88.1986 89° East 197 227 4,800 -532 Descending Chicago Center
Thu 06:31:25 PM 41.9675 -88.1278 90° East 194 223 3,900 -1,065 Descending Chicago Center
Thu 06:32:10 PM 41.9667 -88.0667 91° East 181 208 2,900 -1,333 Descending Chicago TRACON

Login

Don't have an account? Register now (free) for customized features, flight alerts, and more!